Decoded Metar for KRME (ROME in NY, USA) (IATA:RME) | Meteo·Mobile Aviation Weather
aviador You're here:

KRME Decoded Metar

ROME in NY, USA
Report Time2018-08-21 10:53:00
UTC Time2018-08-21 12:13:14
Flight Rules Old
Wind110° at 06 kt
W.Decomp.*RWY 15: 5.3 kt HW 2.7 kt LCW
W.Rank110° ranks 1
Current wind is below 110° avg. (6.7)
Visibility9999 m
Phenomena:N/A
Clouds:N/A
Expected CloudBase > 800 ft AGL from Temp-Dew spread
CeilingNone
Temp18°C (ISA +4)
Dew Point16°C (88% RH)
AAT17.8°C
QNH1018 hPa
Density Alt1,050 ft
Elevation505 ft
Report Wrong Elevation
Raw Report
KRME 211053Z 11006KT 10SM CLR 18/16 A3007 RMK AO2 SLP177
T01780161=

Extra information for KRME:More info

Metar Taf Metar & Taf Last 4 Metars F.Rules Stats Wind Profile Meteogram Temp Stats Airport Information Weather charts Add Link Nearby VenuesMetar ALERT Operation Metar Decoded Social comments

AIRNAV info for KRME